Aviation Digital Data Service (ADDS)

Output produced by METARs form (0326 UTC 19 August 2019)
found at http://www.aviationweather.gov/metar/data/
 
Forecast for: TGPY (POINT SALINES , GD)
Text: TGPY 182157Z 1900/1924 08010KT 9999 SCT018
Forecast period: 0000 to 1000 UTC 19 August 2019
Forecast type: FROM: standard forecast or significant change
Winds: from the E (80 degrees) at 12 MPH (10 knots; 5.1 m/s)
Visibility: 6 or more miles 10+ km)
Ceiling: at least 12,000 feet AGL
Clouds: scattered clouds at 1800 feet AGL
Weather: no significant weather forecast for this period
Text: BECMG 1910/1912 12014KT SCT020
Forecast period: 1000 UTC 19 August 2019 to 0000 UTC 20 August 2019
Forecast type: BECOMING: Conditions expected to become as follows by 1200 UTC 19 August 2019
Winds: from the ESE (120 degrees) at 16 MPH (14 knots; 7.2 m/s)
Visibility: 6 or more miles 10+ km)
Ceiling: at least 12,000 feet AGL
Clouds: scattered clouds at 2000 feet AGL
Weather: no significant weather forecast for this period